Terminal Aerodrome Forecast
Issued by NWS Lake Charles, LA

Home | Current Version | Previous Version | Text Only | Print | Product List | Glossary On
Versions: 1 2 3 4 5 6 7 8 9 10 11 12 13 14 15 16 17 18 19 20 21
000
FTUS44 KLCH 171724
TAFLCH
TAF
KLCH 171724Z 1718/1818 24010KT P6SM VCSH BKN015
      TEMPO 1718/1722 SCT015 BKN035
     FM180000 27005KT P6SM VCSH OVC008
     FM180300 VRB04KT 1SM BR OVC003
      TEMPO 1809/1813 1/2SM FG OVC002
     FM181600 12005KT 4SM BR OVC005=

USA.gov is the U.S. government's official web portal to all federal, state and local government web resources and services.